Ketton, United Kingdom
Current Conditions -  °F | °C
As of 6:50 PM on Friday 24 Oct 2014 (Local Time) from EGXT Reporting Station
Broken Clouds Broken Clouds  
Wind Chill: 55°   Ceiling: 4100
Heat Index: 55°   Visibility: NA
Dew Point: 52°   Wind: 17mph
Humidity: 88%   Direction: 290°WNW
Pressure: 29.85"   Gusts: NA
Location:  52.63°N, 0.55°W
Report Text: EGXT 241750Z AUTO 29015KT //// // FEW010/// BKN041/// 13/11 Q1011
Loading
Personal Weather Stations






























Interactive Weather Map
Tropical Storm Tracking
New forecast layout! Learn more

10-Day Weather Forecast

Advertisements
Track Severe Weather on mobile